createdAt,value
2023-12-28T00:02:26.573Z,43.10
2023-12-28T00:04:53.595Z,42.25
2023-12-28T00:07:21.232Z,42.78
2023-12-28T00:09:48.574Z,53.55
2023-12-28T00:12:15.903Z,47.92
2023-12-28T00:14:42.869Z,54.45
2023-12-28T00:17:09.777Z,45.25
2023-12-28T00:19:37.265Z,48.20
2023-12-28T00:22:04.613Z,52.88
2023-12-28T00:24:31.908Z,49.35
2023-12-28T00:26:59.346Z,56.35
2023-12-28T00:29:26.233Z,51.13
2023-12-28T00:31:53.497Z,52.63
2023-12-28T00:34:20.489Z,53.22
2023-12-28T00:36:47.526Z,49.78
2023-12-28T00:39:16.355Z,46.53
2023-12-28T00:41:43.346Z,42.63
2023-12-28T00:44:10.854Z,54.92
2023-12-28T00:46:38.189Z,48.85
2023-12-28T00:49:05.232Z,46.45
2023-12-28T00:51:32.136Z,45.78
2023-12-28T00:53:59.092Z,43.67
2023-12-28T00:56:25.967Z,41.80
2023-12-28T00:58:53.010Z,43.17
2023-12-28T01:01:20.401Z,44.85
2023-12-28T01:03:47.766Z,33.55
2023-12-28T01:06:14.769Z,37.50
2023-12-28T01:08:42.049Z,37.28
2023-12-28T01:11:09.778Z,38.85
2023-12-28T01:13:39.197Z,32.75
2023-12-28T01:16:07.519Z,32.13
2023-12-28T01:18:35.002Z,39.03
2023-12-28T01:21:02.497Z,37.60
2023-12-28T01:23:29.758Z,32.13
2023-12-28T01:25:57.708Z,24.35
2023-12-28T01:28:24.994Z,34.80
2023-12-28T01:30:51.925Z,30.20
2023-12-28T01:33:19.336Z,22.45
2023-12-28T01:35:46.730Z,31.90
2023-12-28T01:38:14.015Z,32.88
2023-12-28T01:40:46.243Z,23.40
2023-12-28T01:43:13.221Z,32.58
2023-12-28T01:45:40.487Z,31.70
2023-12-28T01:48:07.843Z,27.60
2023-12-28T01:50:34.819Z,28.92
2023-12-28T01:53:02.676Z,29.98
2023-12-28T01:55:31.507Z,28.48
2023-12-28T01:57:59.549Z,31.80
2023-12-28T02:00:27.158Z,28.83
2023-12-28T02:02:54.561Z,30.60
2023-12-28T02:05:22.884Z,24.27
2023-12-28T02:07:50.241Z,22.17
2023-12-28T02:10:17.183Z,26.83
2023-12-28T02:12:44.799Z,29.90
2023-12-28T02:15:12.402Z,29.90
2023-12-28T02:17:49.787Z,24.95
2023-12-28T02:20:17.407Z,23.98
2023-12-28T02:22:45.044Z,24.10
2023-12-28T02:25:16.575Z,23.10
2023-12-28T02:27:48.604Z,30.98
2023-12-28T02:30:23.710Z,27.80
2023-12-28T02:33:15.170Z,29.48
2023-12-28T02:35:51.927Z,31.70
2023-12-28T02:38:20.063Z,32.35
2023-12-28T02:40:48.744Z,26.52
2023-12-28T02:43:16.062Z,30.27
2023-12-28T02:45:43.430Z,37.67
2023-12-28T02:48:10.967Z,38.65
2023-12-28T02:50:38.410Z,35.03
2023-12-28T02:53:05.712Z,32.92
2023-12-28T02:55:32.658Z,28.52
2023-12-28T02:58:01.606Z,43.25
2023-12-28T03:00:30.122Z,33.88
2023-12-28T03:02:57.795Z,31.88
2023-12-28T03:05:25.335Z,28.45
2023-12-28T03:07:52.298Z,40.42
2023-12-28T03:10:19.400Z,34.28
2023-12-28T03:12:46.915Z,30.85
2023-12-28T03:15:14.551Z,32.30
2023-12-28T03:17:42.184Z,32.50
2023-12-28T03:20:10.501Z,32.13
2023-12-28T03:22:37.522Z,32.60
2023-12-28T03:25:05.179Z,18.83
2023-12-28T03:27:32.961Z,28.85
2023-12-28T03:30:00.434Z,27.33
2023-12-28T03:32:27.489Z,31.75
2023-12-28T03:34:54.809Z,31.20
2023-12-28T03:37:21.659Z,31.63
2023-12-28T03:39:49.038Z,21.98
2023-12-28T03:42:16.480Z,37.05
2023-12-28T03:44:43.401Z,35.35
2023-12-28T03:47:10.285Z,25.38
2023-12-28T03:49:37.387Z,29.15
2023-12-28T03:52:05.029Z,31.33
2023-12-28T03:54:32.363Z,27.80
2023-12-28T03:56:59.314Z,29.92
2023-12-28T03:59:26.288Z,28.17
2023-12-28T04:01:53.182Z,23.95
2023-12-28T04:04:20.539Z,25.92
2023-12-28T04:06:47.546Z,29.85
2023-12-28T04:09:15.481Z,29.50
2023-12-28T04:11:43.186Z,27.40
2023-12-28T04:14:10.568Z,25.30
2023-12-28T04:16:37.841Z,13.00
2023-12-28T04:19:04.901Z,28.65
2023-12-28T04:21:32.578Z,23.95
2023-12-28T04:23:59.880Z,21.50
2023-12-28T04:26:27.180Z,22.08
2023-12-28T04:28:54.438Z,18.25
2023-12-28T04:31:21.815Z,27.38
2023-12-28T04:33:49.157Z,21.33
2023-12-28T04:36:16.528Z,25.33
2023-12-28T04:38:43.446Z,25.67
2023-12-28T04:41:11.089Z,23.83
2023-12-28T04:43:38.321Z,29.60
2023-12-28T04:46:06.183Z,25.98
2023-12-28T04:48:33.798Z,15.25
2023-12-28T04:51:04.130Z,22.80
2023-12-28T04:53:32.031Z,25.33
2023-12-28T04:56:01.592Z,22.90
2023-12-28T04:58:28.450Z,27.52
2023-12-28T05:00:55.884Z,25.52
2023-12-28T05:03:23.265Z,18.48
2023-12-28T05:05:50.167Z,22.90
2023-12-28T05:08:17.501Z,24.88
2023-12-28T05:10:44.383Z,25.30
2023-12-28T05:13:11.349Z,25.85
2023-12-28T05:15:38.708Z,14.98
2023-12-28T05:18:08.047Z,13.63
2023-12-28T05:20:35.105Z,26.35
2023-12-28T05:23:02.497Z,16.38
2023-12-28T05:25:29.351Z,20.25
2023-12-28T05:27:56.874Z,17.15
2023-12-28T05:30:24.564Z,22.77
2023-12-28T05:32:51.942Z,17.70
2023-12-28T05:35:19.251Z,19.10
2023-12-28T05:37:46.570Z,20.00
2023-12-28T05:40:13.719Z,19.38
2023-12-28T05:42:40.743Z,18.70
2023-12-28T05:45:08.276Z,30.98
2023-12-28T05:47:35.136Z,19.27
2023-12-28T05:50:04.263Z,15.50
2023-12-28T05:52:31.792Z,10.55
2023-12-28T05:54:59.356Z,21.70
2023-12-28T05:57:31.237Z,20.65
2023-12-28T05:59:58.972Z,15.30
2023-12-28T06:02:26.274Z,15.05
2023-12-28T06:04:53.737Z,18.58
2023-12-28T06:07:20.907Z,20.23
2023-12-28T06:09:48.214Z,18.13
2023-12-28T06:12:16.043Z,19.25
2023-12-28T06:14:43.471Z,24.38
2023-12-28T06:17:10.331Z,21.38
2023-12-28T06:19:37.234Z,20.45
2023-12-28T06:22:04.307Z,11.00
2023-12-28T06:24:31.686Z,13.48
2023-12-28T06:26:58.977Z,17.55
2023-12-28T06:29:26.238Z,19.05
2023-12-28T06:31:53.101Z,17.42
2023-12-28T06:34:20.477Z,18.25
2023-12-28T06:36:47.960Z,18.52
2023-12-28T06:39:15.280Z,22.55
2023-12-28T06:41:42.652Z,18.20
2023-12-28T06:44:10.323Z,19.35
2023-12-28T06:46:37.186Z,19.42
2023-12-28T06:49:05.284Z,17.48
2023-12-28T06:51:34.114Z,19.23
2023-12-28T06:54:01.378Z,18.10
2023-12-28T06:56:28.631Z,16.13
2023-12-28T06:58:55.633Z,15.57
2023-12-28T07:01:23.070Z,12.40
2023-12-28T07:03:50.073Z,9.45
2023-12-28T07:06:17.521Z,23.00
2023-12-28T07:08:44.404Z,17.05
2023-12-28T07:11:12.627Z,13.10
2023-12-28T07:13:39.729Z,20.67
2023-12-28T07:16:08.911Z,19.25
2023-12-28T07:18:36.819Z,21.50
2023-12-28T07:21:03.895Z,16.25
2023-12-28T07:23:31.322Z,15.98
2023-12-28T07:25:58.422Z,17.33
2023-12-28T07:28:25.777Z,9.93
2023-12-28T07:30:52.767Z,17.52
2023-12-28T07:33:19.880Z,16.42
2023-12-28T07:35:47.523Z,17.33
2023-12-28T07:38:14.876Z,10.00
2023-12-28T07:40:41.729Z,16.55
2023-12-28T07:43:08.774Z,13.43
2023-12-28T07:45:39.989Z,15.82
2023-12-28T07:48:07.723Z,14.25
2023-12-28T07:50:35.215Z,15.45
2023-12-28T07:53:02.458Z,14.77
2023-12-28T07:55:29.313Z,14.57
2023-12-28T07:57:56.899Z,11.63
2023-12-28T08:00:24.378Z,16.98
2023-12-28T08:02:51.724Z,15.45
2023-12-28T08:05:18.664Z,13.35
2023-12-28T08:07:46.007Z,12.73
2023-12-28T08:10:13.312Z,10.50
2023-12-28T08:12:40.659Z,12.02
2023-12-28T08:15:08.225Z,13.50
2023-12-28T08:17:35.491Z,14.73
2023-12-28T08:20:02.988Z,15.43
2023-12-28T08:22:30.336Z,11.40
2023-12-28T08:24:58.809Z,14.02
2023-12-28T08:27:26.103Z,16.40
2023-12-28T08:29:53.478Z,13.90
2023-12-28T08:32:20.899Z,13.82
2023-12-28T08:34:49.321Z,14.88
2023-12-28T08:37:16.401Z,13.98
2023-12-28T08:39:43.807Z,11.05
2023-12-28T08:42:11.136Z,14.43
2023-12-28T08:44:38.970Z,14.05
2023-12-28T08:47:06.001Z,13.40
2023-12-28T08:49:34.460Z,11.45
2023-12-28T08:52:01.860Z,14.82
2023-12-28T08:54:29.073Z,10.73
2023-12-28T08:56:59.507Z,21.70
2023-12-28T08:59:27.449Z,17.25
2023-12-28T09:01:57.172Z,13.15
2023-12-28T09:04:24.599Z,16.73
2023-12-28T09:06:52.065Z,12.50
2023-12-28T09:09:19.432Z,11.88
2023-12-28T09:11:46.428Z,10.88
2023-12-28T09:14:13.411Z,11.13
2023-12-28T09:16:43.209Z,14.77
2023-12-28T09:19:10.882Z,12.00
2023-12-28T09:21:37.800Z,13.23
2023-12-28T09:24:04.814Z,12.40
2023-12-28T09:26:33.569Z,10.88
2023-12-28T09:29:00.885Z,12.07
2023-12-28T09:31:28.302Z,10.60
2023-12-28T09:33:55.319Z,15.00
2023-12-28T09:36:22.632Z,13.82
2023-12-28T09:38:49.988Z,13.88
2023-12-28T09:41:17.519Z,12.60
2023-12-28T09:44:12.746Z,11.68
2023-12-28T09:46:43.666Z,11.05
2023-12-28T09:49:11.809Z,13.68
2023-12-28T09:51:39.272Z,13.10
2023-12-28T09:54:06.280Z,12.32
2023-12-28T09:56:33.906Z,10.30
2023-12-28T09:59:01.369Z,12.70
2023-12-28T10:01:29.166Z,11.00
2023-12-28T10:03:56.267Z,13.13
2023-12-28T10:06:23.681Z,12.85
2023-12-28T10:08:51.847Z,10.73
2023-12-28T10:11:20.011Z,9.40
2023-12-28T10:13:47.077Z,14.20
2023-12-28T10:16:14.448Z,8.13
2023-12-28T10:18:45.128Z,11.48
2023-12-28T10:21:13.225Z,13.35
2023-12-28T10:23:40.577Z,10.50
2023-12-28T10:26:07.860Z,10.75
2023-12-28T10:28:37.452Z,12.70
2023-12-28T10:31:04.510Z,10.07
2023-12-28T10:33:39.469Z,14.32
2023-12-28T10:36:10.504Z,9.02
2023-12-28T10:38:39.552Z,11.73
2023-12-28T10:41:10.299Z,9.77
2023-12-28T10:43:47.796Z,11.00
2023-12-28T10:46:28.239Z,12.00
2023-12-28T10:49:01.112Z,11.60
2023-12-28T10:51:28.949Z,13.20
2023-12-28T10:54:13.340Z,11.25
2023-12-28T10:56:48.708Z,10.93
2023-12-28T10:59:24.464Z,12.85
2023-12-28T11:01:55.925Z,9.77
2023-12-28T11:04:32.716Z,13.98
2023-12-28T11:07:03.206Z,14.23
2023-12-28T11:09:32.768Z,11.70
2023-12-28T11:12:03.096Z,9.35
2023-12-28T11:14:30.451Z,12.25
2023-12-28T11:17:03.639Z,12.68
2023-12-28T11:19:31.420Z,14.30
2023-12-28T11:22:01.205Z,14.85
2023-12-28T11:24:30.330Z,14.07
2023-12-28T11:26:58.146Z,11.45
2023-12-28T11:29:25.698Z,15.05
2023-12-28T11:31:58.054Z,13.35
2023-12-28T11:34:37.754Z,13.20
2023-12-28T11:37:10.656Z,16.48
2023-12-28T11:39:40.110Z,13.02
2023-12-28T11:42:09.448Z,16.92
2023-12-28T11:44:40.608Z,15.18
2023-12-28T11:47:28.534Z,20.08
2023-12-28T11:49:56.035Z,15.50
2023-12-28T11:52:25.993Z,15.73
2023-12-28T11:54:53.138Z,16.13
2023-12-28T11:57:20.172Z,13.00
2023-12-28T11:59:49.212Z,15.80
2023-12-28T12:02:16.801Z,18.30
2023-12-28T12:04:44.722Z,17.65
2023-12-28T12:07:11.660Z,18.13
2023-12-28T12:09:39.031Z,18.73
2023-12-28T12:12:07.713Z,15.05
2023-12-28T12:14:36.038Z,13.82
2023-12-28T12:17:03.672Z,19.02
2023-12-28T12:19:31.159Z,15.50
2023-12-28T12:21:58.683Z,16.48
2023-12-28T12:24:25.699Z,17.92
2023-12-28T12:26:53.522Z,13.77
2023-12-28T12:29:24.019Z,13.75
2023-12-28T12:31:56.230Z,16.63
2023-12-28T12:34:23.528Z,17.58
2023-12-28T12:36:53.626Z,16.73
2023-12-28T12:39:21.039Z,13.20
2023-12-28T12:41:48.691Z,18.70
2023-12-28T12:44:18.259Z,15.88
2023-12-28T12:46:45.246Z,17.42
2023-12-28T12:49:12.495Z,16.10
2023-12-28T12:51:41.911Z,19.50
2023-12-28T12:54:10.375Z,16.40
2023-12-28T12:56:37.731Z,17.45
2023-12-28T12:59:04.682Z,16.02
2023-12-28T13:01:32.114Z,17.45
2023-12-28T13:03:59.551Z,19.02
2023-12-28T13:06:26.481Z,19.40
2023-12-28T13:08:53.505Z,18.95
2023-12-28T13:11:24.674Z,16.27
2023-12-28T13:13:52.107Z,16.95
2023-12-28T13:16:19.381Z,20.60
2023-12-28T13:18:46.366Z,18.75
2023-12-28T13:21:14.161Z,15.98
2023-12-28T13:23:41.085Z,19.17
2023-12-28T13:26:08.895Z,14.48
2023-12-28T13:28:35.804Z,17.23
2023-12-28T13:31:03.147Z,17.67
2023-12-28T13:33:31.136Z,15.98
2023-12-28T13:35:59.147Z,16.33
2023-12-28T13:38:26.031Z,10.50
2023-12-28T13:40:53.142Z,15.20
2023-12-28T13:43:20.146Z,16.88
2023-12-28T13:45:47.901Z,18.85
2023-12-28T13:48:15.356Z,14.90
2023-12-28T13:50:42.365Z,19.67
2023-12-28T13:53:09.460Z,15.90
2023-12-28T13:55:36.588Z,15.27
2023-12-28T13:58:05.672Z,14.65
2023-12-28T14:00:32.625Z,19.40
2023-12-28T14:03:00.754Z,17.02
2023-12-28T14:05:30.664Z,18.02
2023-12-28T14:07:58.969Z,20.13
2023-12-28T14:10:25.877Z,17.77
2023-12-28T14:12:52.927Z,17.80
2023-12-28T14:15:20.332Z,15.75
2023-12-28T14:17:47.762Z,16.42
2023-12-28T14:20:14.816Z,21.15
2023-12-28T14:22:42.645Z,16.95
2023-12-28T14:25:12.689Z,18.58
2023-12-28T14:27:40.851Z,13.30
2023-12-28T14:30:10.737Z,17.15
2023-12-28T14:32:38.766Z,16.65
2023-12-28T14:35:06.294Z,16.02
2023-12-28T14:37:33.558Z,19.50
2023-12-28T14:40:00.959Z,19.63
2023-12-28T14:42:28.052Z,18.80
2023-12-28T14:44:54.976Z,20.73
2023-12-28T14:47:22.732Z,23.08
2023-12-28T14:49:50.257Z,20.20
2023-12-28T14:52:17.314Z,19.73
2023-12-28T14:54:44.609Z,20.55
2023-12-28T14:57:13.100Z,21.50
2023-12-28T14:59:41.046Z,30.45
2023-12-28T15:02:08.822Z,19.13
2023-12-28T15:04:36.168Z,19.88
2023-12-28T15:07:04.725Z,22.58
2023-12-28T15:09:31.978Z,21.65
2023-12-28T15:12:00.305Z,16.60
2023-12-28T15:14:27.460Z,22.08
2023-12-28T15:16:54.752Z,22.38
2023-12-28T15:19:22.131Z,24.90
2023-12-28T15:21:49.584Z,22.17
2023-12-28T15:24:17.643Z,21.00
2023-12-28T15:26:44.942Z,21.17
2023-12-28T15:29:13.685Z,23.65
2023-12-28T15:31:41.043Z,21.00
2023-12-28T15:34:08.560Z,23.10
2023-12-28T15:36:36.097Z,21.77
2023-12-28T15:39:06.327Z,20.27
2023-12-28T15:41:34.224Z,25.42
2023-12-28T15:44:01.613Z,23.30
2023-12-28T15:46:28.938Z,22.95
2023-12-28T15:48:56.505Z,22.02
2023-12-28T15:51:24.432Z,25.65
2023-12-28T15:53:52.039Z,17.38
2023-12-28T15:56:20.001Z,21.83
2023-12-28T15:58:47.329Z,23.17
2023-12-28T16:01:14.590Z,21.13
2023-12-28T16:03:42.054Z,22.30
2023-12-28T16:06:10.546Z,25.13
2023-12-28T16:08:38.775Z,22.30
2023-12-28T16:11:07.006Z,25.10
2023-12-28T16:13:35.138Z,25.67
2023-12-28T16:16:02.863Z,22.67
2023-12-28T16:18:30.402Z,22.55
2023-12-28T16:20:57.824Z,22.05
2023-12-28T16:23:25.210Z,20.33
2023-12-28T16:25:52.320Z,24.75
2023-12-28T16:28:19.754Z,22.63
2023-12-28T16:30:47.141Z,23.73
2023-12-28T16:33:14.568Z,24.55
2023-12-28T16:35:41.768Z,25.20
2023-12-28T16:38:09.033Z,23.42
2023-12-28T16:40:36.358Z,23.23
2023-12-28T16:43:04.105Z,22.13
2023-12-28T16:45:31.524Z,20.23
2023-12-28T16:47:58.870Z,29.08
2023-12-28T16:50:26.491Z,29.02
2023-12-28T16:52:57.618Z,24.75
2023-12-28T16:55:27.336Z,30.75
2023-12-28T16:57:54.819Z,27.13
2023-12-28T17:00:23.460Z,25.33
2023-12-28T17:02:50.999Z,21.30
2023-12-28T17:05:18.696Z,28.33
2023-12-28T17:07:46.054Z,21.83
2023-12-28T17:10:13.676Z,19.73
2023-12-28T17:12:44.704Z,22.08
2023-12-28T17:15:13.461Z,23.98
2023-12-28T17:17:43.122Z,23.60
2023-12-28T17:20:11.772Z,28.38
2023-12-28T17:22:51.524Z,22.13
2023-12-28T17:25:42.928Z,16.30
2023-12-28T17:28:24.961Z,25.00
2023-12-28T17:30:56.625Z,29.35
2023-12-28T17:33:24.144Z,23.05
2023-12-28T17:35:51.577Z,26.42
2023-12-28T17:38:18.958Z,24.52
2023-12-28T17:40:46.213Z,26.13
2023-12-28T17:43:35.024Z,25.67
2023-12-28T17:46:25.572Z,23.80
2023-12-28T17:48:54.220Z,24.20
2023-12-28T17:51:24.973Z,23.83
2023-12-28T17:53:52.090Z,26.17
2023-12-28T17:56:20.353Z,25.77
2023-12-28T17:58:47.544Z,22.67
2023-12-28T18:01:17.874Z,21.08
2023-12-28T18:03:46.929Z,25.35
2023-12-28T18:06:14.840Z,23.20
2023-12-28T18:08:42.085Z,25.08
2023-12-28T18:11:09.728Z,26.70
2023-12-28T18:13:36.689Z,18.70
2023-12-28T18:16:04.674Z,31.15
2023-12-28T18:18:32.503Z,32.90
2023-12-28T18:20:59.812Z,26.83
2023-12-28T18:23:27.082Z,28.13
2023-12-28T18:25:54.102Z,33.53
2023-12-28T18:28:21.365Z,32.10
2023-12-28T18:30:48.739Z,32.78
2023-12-28T18:33:18.375Z,34.55
2023-12-28T18:35:45.360Z,37.65
2023-12-28T18:38:12.604Z,33.88
2023-12-28T18:40:39.889Z,32.10
2023-12-28T18:43:06.867Z,32.35
2023-12-28T18:45:34.203Z,31.90
2023-12-28T18:48:02.011Z,36.72
2023-12-28T18:50:32.827Z,30.02
2023-12-28T18:52:59.798Z,29.05
2023-12-28T18:55:27.085Z,31.45
2023-12-28T18:57:54.647Z,28.00
2023-12-28T19:00:21.658Z,33.05
2023-12-28T19:02:48.513Z,29.75
2023-12-28T19:05:18.340Z,30.95
2023-12-28T19:07:45.941Z,33.97
2023-12-28T19:10:13.047Z,32.35
2023-12-28T19:12:40.405Z,31.92
2023-12-28T19:15:07.818Z,33.00
2023-12-28T19:17:36.031Z,32.58
2023-12-28T19:20:03.480Z,33.70
2023-12-28T19:22:30.413Z,33.95
2023-12-28T19:24:57.390Z,30.38
2023-12-28T19:27:25.283Z,32.75
2023-12-28T19:29:54.683Z,33.35
2023-12-28T19:32:21.943Z,34.40
2023-12-28T19:34:48.919Z,33.15
2023-12-28T19:37:15.995Z,34.50
2023-12-28T19:39:46.716Z,36.55
2023-12-28T19:42:14.446Z,32.97
2023-12-28T19:44:41.755Z,34.63
2023-12-28T19:47:08.834Z,31.55
2023-12-28T19:49:37.150Z,29.63
2023-12-28T19:52:04.618Z,32.13
2023-12-28T19:54:31.922Z,29.58
2023-12-28T19:56:58.891Z,30.45
2023-12-28T19:59:26.133Z,29.13
2023-12-28T20:01:55.167Z,33.55
2023-12-28T20:04:22.866Z,28.02
2023-12-28T20:06:51.362Z,32.35
2023-12-28T20:09:19.017Z,30.98
2023-12-28T20:11:49.013Z,29.33
2023-12-28T20:14:17.618Z,32.70
2023-12-28T20:16:46.563Z,27.23
2023-12-28T20:19:14.364Z,26.70
2023-12-28T20:21:41.774Z,28.02
2023-12-28T20:24:11.989Z,29.00
2023-12-28T20:26:38.952Z,33.88
2023-12-28T20:29:06.226Z,29.75
2023-12-28T20:31:33.685Z,34.15
2023-12-28T20:34:01.184Z,38.08
2023-12-28T20:36:28.548Z,26.75
2023-12-28T20:38:55.483Z,36.28
2023-12-28T20:41:22.748Z,30.52
2023-12-28T20:43:52.762Z,38.30
2023-12-28T20:46:21.518Z,39.55
2023-12-28T20:48:48.648Z,30.20
2023-12-28T20:51:15.996Z,31.65
2023-12-28T20:53:45.146Z,32.63
2023-12-28T20:56:12.216Z,37.15
2023-12-28T20:58:40.044Z,30.25
2023-12-28T21:01:07.217Z,34.35
2023-12-28T21:03:35.080Z,32.45
2023-12-28T21:06:02.435Z,31.35
2023-12-28T21:08:30.670Z,36.60
2023-12-28T21:10:59.455Z,34.97
2023-12-28T21:13:29.386Z,40.72
2023-12-28T21:15:56.538Z,32.55
2023-12-28T21:18:30.432Z,29.90
2023-12-28T21:21:09.084Z,35.38
2023-12-28T21:23:38.885Z,35.60
2023-12-28T21:26:05.769Z,56.65
2023-12-28T21:28:32.725Z,42.55
2023-12-28T21:31:00.389Z,30.70
2023-12-28T21:33:28.722Z,35.55
2023-12-28T21:35:56.049Z,34.83
2023-12-28T21:38:23.054Z,36.08
2023-12-28T21:40:50.344Z,37.17
2023-12-28T21:43:17.802Z,45.28
2023-12-28T21:45:47.057Z,34.35
2023-12-28T21:48:14.483Z,33.38
2023-12-28T21:50:42.152Z,35.80
2023-12-28T21:53:10.384Z,39.92
2023-12-28T21:55:37.690Z,34.70
2023-12-28T21:58:06.382Z,36.92
2023-12-28T22:00:34.197Z,32.00
2023-12-28T22:03:01.849Z,36.00
2023-12-28T22:05:29.357Z,34.63
2023-12-28T22:07:56.501Z,40.70
2023-12-28T22:10:23.465Z,35.20
2023-12-28T22:12:50.597Z,37.95
2023-12-28T22:15:17.914Z,41.05
2023-12-28T22:17:45.205Z,44.75
2023-12-28T22:20:12.604Z,40.95
2023-12-28T22:22:40.052Z,69.22
2023-12-28T22:25:07.215Z,39.15
2023-12-28T22:27:34.557Z,39.45
2023-12-28T22:30:01.502Z,38.95
2023-12-28T22:32:28.513Z,40.08
2023-12-28T22:34:55.965Z,38.30
2023-12-28T22:37:23.318Z,36.65
2023-12-28T22:39:50.722Z,37.65
2023-12-28T22:42:18.799Z,37.63
2023-12-28T22:44:45.909Z,42.75
2023-12-28T22:47:13.249Z,41.13
2023-12-28T22:49:40.517Z,41.65
2023-12-28T22:52:09.120Z,37.20
2023-12-28T22:54:37.432Z,38.75
2023-12-28T22:57:05.162Z,43.15
2023-12-28T22:59:32.802Z,36.78
2023-12-28T23:02:00.088Z,44.65
2023-12-28T23:04:28.598Z,41.90
2023-12-28T23:06:55.915Z,42.45
2023-12-28T23:09:23.185Z,36.53
2023-12-28T23:11:50.936Z,39.20
2023-12-28T23:14:18.170Z,34.92
2023-12-28T23:16:45.423Z,37.92
2023-12-28T23:19:12.719Z,32.97
2023-12-28T23:21:39.858Z,41.97
2023-12-28T23:24:07.305Z,35.33
2023-12-28T23:26:34.594Z,37.05
2023-12-28T23:29:01.578Z,42.05
2023-12-28T23:31:28.615Z,36.80
2023-12-28T23:33:56.304Z,38.83
2023-12-28T23:36:23.901Z,35.65
2023-12-28T23:38:50.793Z,35.40
2023-12-28T23:41:17.733Z,38.97
2023-12-28T23:43:45.088Z,35.83
2023-12-28T23:46:12.082Z,38.25
2023-12-28T23:48:39.452Z,39.38
2023-12-28T23:51:12.134Z,37.70
2023-12-28T23:53:39.792Z,35.58
2023-12-28T23:56:07.058Z,35.30
2023-12-28T23:58:34.493Z,35.75
